sensor_id;sensor_type;location;lat;lon;timestamp;temperature;humidity
8180;DHT22;4131;48.810;11.892;2023-03-11T00:00:38;2.10;99.90
8180;DHT22;4131;48.810;11.892;2023-03-11T00:03:08;2.10;99.90
8180;DHT22;4131;48.810;11.892;2023-03-11T00:05:38;2.10;99.90
8180;DHT22;4131;48.810;11.892;2023-03-11T00:08:11;2.20;99.90
8180;DHT22;4131;48.810;11.892;2023-03-11T00:10:41;2.20;99.90
8180;DHT22;4131;48.810;11.892;2023-03-11T00:13:11;2.20;99.90
8180;DHT22;4131;48.810;11.892;2023-03-11T00:15:42;2.20;99.90
8180;DHT22;4131;48.810;11.892;2023-03-11T00:18:10;2.20;99.90
8180;DHT22;4131;48.810;11.892;2023-03-11T00:20:41;2.20;99.90
8180;DHT22;4131;48.810;11.892;2023-03-11T00:23:12;2.20;99.90
8180;DHT22;4131;48.810;11.892;2023-03-11T00:25:43;2.20;99.90
8180;DHT22;4131;48.810;11.892;2023-03-11T00:28:12;2.10;99.90
8180;DHT22;4131;48.810;11.892;2023-03-11T00:30:42;2.10;99.90
8180;DHT22;4131;48.810;11.892;2023-03-11T00:33:11;2.10;99.90
8180;DHT22;4131;48.810;11.892;2023-03-11T00:35:40;2.10;99.90
8180;DHT22;4131;48.810;11.892;2023-03-11T00:38:12;2.10;99.90
8180;DHT22;4131;48.810;11.892;2023-03-11T00:40:42;2.10;99.90
8180;DHT22;4131;48.810;11.892;2023-03-11T00:43:10;2.10;99.90
8180;DHT22;4131;48.810;11.892;2023-03-11T00:45:39;2.20;99.90
8180;DHT22;4131;48.810;11.892;2023-03-11T00:50:36;2.20;99.90
8180;DHT22;4131;48.810;11.892;2023-03-11T00:53:05;2.10;99.90
8180;DHT22;4131;48.810;11.892;2023-03-11T00:55:34;2.10;99.90
8180;DHT22;4131;48.810;11.892;2023-03-11T00:58:04;2.00;99.90
8180;DHT22;4131;48.810;11.892;2023-03-11T01:00:33;2.10;99.90
8180;DHT22;4131;48.810;11.892;2023-03-11T01:03:01;2.00;99.90
8180;DHT22;4131;48.810;11.892;2023-03-11T01:05:32;2.00;99.90
8180;DHT22;4131;48.810;11.892;2023-03-11T01:08:02;2.00;99.90
8180;DHT22;4131;48.810;11.892;2023-03-11T01:10:31;1.90;99.90
8180;DHT22;4131;48.810;11.892;2023-03-11T01:13:01;1.90;99.90
8180;DHT22;4131;48.810;11.892;2023-03-11T01:15:34;1.80;99.90
8180;DHT22;4131;48.810;11.892;2023-03-11T01:18:06;1.80;99.90
8180;DHT22;4131;48.810;11.892;2023-03-11T01:20:34;1.70;99.90
8180;DHT22;4131;48.810;11.892;2023-03-11T01:23:03;1.70;99.90
8180;DHT22;4131;48.810;11.892;2023-03-11T01:25:34;1.70;99.90
8180;DHT22;4131;48.810;11.892;2023-03-11T01:28:05;1.70;99.90
8180;DHT22;4131;48.810;11.892;2023-03-11T01:30:36;1.80;99.90
8180;DHT22;4131;48.810;11.892;2023-03-11T01:33:05;1.70;99.90
8180;DHT22;4131;48.810;11.892;2023-03-11T01:40:35;1.70;99.90
8180;DHT22;4131;48.810;11.892;2023-03-11T01:46:12;1.70;99.90
8180;DHT22;4131;48.810;11.892;2023-03-11T01:48:45;1.70;99.90
8180;DHT22;4131;48.810;11.892;2023-03-11T01:51:15;1.70;99.90
8180;DHT22;4131;48.810;11.892;2023-03-11T01:53:45;1.70;99.90
8180;DHT22;4131;48.810;11.892;2023-03-11T01:58:47;1.60;99.90
8180;DHT22;4131;48.810;11.892;2023-03-11T02:01:19;1.70;99.90
8180;DHT22;4131;48.810;11.892;2023-03-11T02:06:20;1.80;99.90
8180;DHT22;4131;48.810;11.892;2023-03-11T02:11:20;1.70;99.90
8180;DHT22;4131;48.810;11.892;2023-03-11T02:14:01;1.70;99.90
8180;DHT22;4131;48.810;11.892;2023-03-11T02:16:31;1.70;99.90
8180;DHT22;4131;48.810;11.892;2023-03-11T02:19:07;1.70;99.90
8180;DHT22;4131;48.810;11.892;2023-03-11T02:24:10;1.60;99.90
8180;DHT22;4131;48.810;11.892;2023-03-11T02:26:53;0.30;99.90
8180;DHT22;4131;48.810;11.892;2023-03-11T02:29:22;1.50;99.90
8180;DHT22;4131;48.810;11.892;2023-03-11T02:31:52;1.50;99.90
8180;DHT22;4131;48.810;11.892;2023-03-11T02:34:24;0.00;99.90
8180;DHT22;4131;48.810;11.892;2023-03-11T02:36:53;1.50;99.90
8180;DHT22;4131;48.810;11.892;2023-03-11T02:39:29;1.40;99.90
8180;DHT22;4131;48.810;11.892;2023-03-11T02:42:03;1.40;99.90
8180;DHT22;4131;48.810;11.892;2023-03-11T02:44:33;1.40;99.90
8180;DHT22;4131;48.810;11.892;2023-03-11T02:49:33;1.30;99.90
8180;DHT22;4131;48.810;11.892;2023-03-11T02:52:03;1.40;99.90
8180;DHT22;4131;48.810;11.892;2023-03-11T02:57:02;1.30;99.90
8180;DHT22;4131;48.810;11.892;2023-03-11T03:14:25;1.20;99.90
8180;DHT22;4131;48.810;11.892;2023-03-11T03:31:47;0.50;99.90
8180;DHT22;4131;48.810;11.892;2023-03-11T03:49:08;-0.30;99.90
8180;DHT22;4131;48.810;11.892;2023-03-11T04:06:32;-0.60;99.90
8180;DHT22;4131;48.810;11.892;2023-03-11T04:11:30;-0.40;99.90
8180;DHT22;4131;48.810;11.892;2023-03-11T04:17:08;-0.40;99.90
8180;DHT22;4131;48.810;11.892;2023-03-11T04:22:07;-0.30;99.90
8180;DHT22;4131;48.810;11.892;2023-03-11T04:39:28;-0.30;99.90
8180;DHT22;4131;48.810;11.892;2023-03-11T04:56:47;-0.40;99.90
8180;DHT22;4131;48.810;11.892;2023-03-11T05:14:07;-0.70;99.90
8180;DHT22;4131;48.810;11.892;2023-03-11T05:29:19;-0.70;99.90
8180;DHT22;4131;48.810;11.892;2023-03-11T05:46:40;-0.60;99.90
8180;DHT22;4131;48.810;11.892;2023-03-11T06:04:03;-0.50;99.90
8180;DHT22;4131;48.810;11.892;2023-03-11T06:16:26;-0.30;99.90
8180;DHT22;4131;48.810;11.892;2023-03-11T06:21:24;-0.30;99.90
8180;DHT22;4131;48.810;11.892;2023-03-11T06:26:21;-0.30;99.90
8180;DHT22;4131;48.810;11.892;2023-03-11T06:28:51;-0.20;99.90
8180;DHT22;4131;48.810;11.892;2023-03-11T06:31:20;-0.20;99.90
8180;DHT22;4131;48.810;11.892;2023-03-11T06:36:19;-0.20;99.90
8180;DHT22;4131;48.810;11.892;2023-03-11T06:38:50;-0.20;99.90
8180;DHT22;4131;48.810;11.892;2023-03-11T06:46:17;-0.20;99.90
8180;DHT22;4131;48.810;11.892;2023-03-11T06:53:49;-0.10;99.90
8180;DHT22;4131;48.810;11.892;2023-03-11T07:01:17;0.10;99.90
8180;DHT22;4131;48.810;11.892;2023-03-11T07:06:16;0.20;99.90
8180;DHT22;4131;48.810;11.892;2023-03-11T07:08:45;0.30;99.90
8180;DHT22;4131;48.810;11.892;2023-03-11T07:11:18;0.30;99.90
8180;DHT22;4131;48.810;11.892;2023-03-11T07:16:16;0.50;99.90
8180;DHT22;4131;48.810;11.892;2023-03-11T07:18:46;0.50;99.90
8180;DHT22;4131;48.810;11.892;2023-03-11T07:21:17;0.50;99.90
8180;DHT22;4131;48.810;11.892;2023-03-11T07:23:46;0.80;99.90
8180;DHT22;4131;48.810;11.892;2023-03-11T07:26:16;0.80;99.90
8180;DHT22;4131;48.810;11.892;2023-03-11T07:31:16;1.10;99.90
8180;DHT22;4131;48.810;11.892;2023-03-11T07:33:46;1.20;99.90
8180;DHT22;4131;48.810;11.892;2023-03-11T07:36:16;1.20;99.90
8180;DHT22;4131;48.810;11.892;2023-03-11T07:38:45;1.30;99.90
8180;DHT22;4131;48.810;11.892;2023-03-11T07:41:15;1.30;99.90
8180;DHT22;4131;48.810;11.892;2023-03-11T07:46:13;1.40;99.90
8180;DHT22;4131;48.810;11.892;2023-03-11T07:48:44;1.50;99.90
8180;DHT22;4131;48.810;11.892;2023-03-11T07:51:14;1.50;99.90
8180;DHT22;4131;48.810;11.892;2023-03-11T07:53:42;1.60;99.90
8180;DHT22;4131;48.810;11.892;2023-03-11T07:56:16;1.60;99.90
8180;DHT22;4131;48.810;11.892;2023-03-11T08:01:14;1.50;99.90
8180;DHT22;4131;48.810;11.892;2023-03-11T08:03:44;1.50;99.90
8180;DHT22;4131;48.810;11.892;2023-03-11T08:06:13;1.30;99.90
8180;DHT22;4131;48.810;11.892;2023-03-11T08:08:41;1.40;99.90
8180;DHT22;4131;48.810;11.892;2023-03-11T08:11:11;1.60;99.90
8180;DHT22;4131;48.810;11.892;2023-03-11T08:13:42;1.70;99.90
8180;DHT22;4131;48.810;11.892;2023-03-11T08:16:13;1.70;99.90
8180;DHT22;4131;48.810;11.892;2023-03-11T08:18:42;1.70;99.90
8180;DHT22;4131;48.810;11.892;2023-03-11T08:21:12;1.60;99.90
8180;DHT22;4131;48.810;11.892;2023-03-11T08:23:40;3.00;99.90
8180;DHT22;4131;48.810;11.892;2023-03-11T08:26:11;2.10;99.90
8180;DHT22;4131;48.810;11.892;2023-03-11T08:28:41;3.10;99.90
8180;DHT22;4131;48.810;11.892;2023-03-11T08:31:13;3.70;99.90
8180;DHT22;4131;48.810;11.892;2023-03-11T08:33:42;4.20;99.90
8180;DHT22;4131;48.810;11.892;2023-03-11T08:36:11;4.50;99.90
8180;DHT22;4131;48.810;11.892;2023-03-11T08:38:39;5.40;99.90
8180;DHT22;4131;48.810;11.892;2023-03-11T08:41:07;5.00;99.90
8180;DHT22;4131;48.810;11.892;2023-03-11T08:43:35;5.50;99.90
8180;DHT22;4131;48.810;11.892;2023-03-11T08:46:05;5.70;99.90
8180;DHT22;4131;48.810;11.892;2023-03-11T08:48:35;5.30;99.90
8180;DHT22;4131;48.810;11.892;2023-03-11T08:51:08;5.10;99.90
8180;DHT22;4131;48.810;11.892;2023-03-11T08:53:36;5.40;99.90
8180;DHT22;4131;48.810;11.892;2023-03-11T08:56:05;4.60;99.90
8180;DHT22;4131;48.810;11.892;2023-03-11T08:58:33;4.30;99.90
8180;DHT22;4131;48.810;11.892;2023-03-11T09:01:01;4.30;99.90
8180;DHT22;4131;48.810;11.892;2023-03-11T09:03:32;4.70;99.90
8180;DHT22;4131;48.810;11.892;2023-03-11T09:06:02;4.30;99.90
8180;DHT22;4131;48.810;11.892;2023-03-11T09:08:31;4.30;99.90
8180;DHT22;4131;48.810;11.892;2023-03-11T09:11:00;3.90;99.90
8180;DHT22;4131;48.810;11.892;2023-03-11T09:13:28;3.80;99.90
8180;DHT22;4131;48.810;11.892;2023-03-11T09:18:24;3.60;99.90
8180;DHT22;4131;48.810;11.892;2023-03-11T09:20:54;3.60;99.90
8180;DHT22;4131;48.810;11.892;2023-03-11T09:23:24;3.40;99.90
8180;DHT22;4131;48.810;11.892;2023-03-11T09:28:20;3.20;99.90
8180;DHT22;4131;48.810;11.892;2023-03-11T09:30:48;3.20;99.90
8180;DHT22;4131;48.810;11.892;2023-03-11T09:38:15;2.90;99.90
8180;DHT22;4131;48.810;11.892;2023-03-11T09:40:50;2.80;99.90
8180;DHT22;4131;48.810;11.892;2023-03-11T09:43:40;2.90;99.90
8180;DHT22;4131;48.810;11.892;2023-03-11T09:49:08;3.00;99.90
8180;DHT22;4131;48.810;11.892;2023-03-11T09:51:44;3.30;99.90
8180;DHT22;4131;48.810;11.892;2023-03-11T09:54:14;3.40;99.90
8180;DHT22;4131;48.810;11.892;2023-03-11T09:56:42;3.50;99.90
8180;DHT22;4131;48.810;11.892;2023-03-11T09:59:16;3.50;99.90
8180;DHT22;4131;48.810;11.892;2023-03-11T10:01:47;3.90;99.90
8180;DHT22;4131;48.810;11.892;2023-03-11T10:04:19;4.50;99.90
8180;DHT22;4131;48.810;11.892;2023-03-11T10:06:48;4.10;99.90
8180;DHT22;4131;48.810;11.892;2023-03-11T10:09:37;3.90;99.90
8180;DHT22;4131;48.810;11.892;2023-03-11T10:12:17;3.60;99.90
8180;DHT22;4131;48.810;11.892;2023-03-11T10:14:54;4.00;99.90
8180;DHT22;4131;48.810;11.892;2023-03-11T10:17:44;4.00;99.90
8180;DHT22;4131;48.810;11.892;2023-03-11T10:20:16;4.10;99.90
8180;DHT22;4131;48.810;11.892;2023-03-11T10:22:57;4.30;99.90
8180;DHT22;4131;48.810;11.892;2023-03-11T10:25:39;4.50;99.90
8180;DHT22;4131;48.810;11.892;2023-03-11T10:28:12;4.40;99.90
8180;DHT22;4131;48.810;11.892;2023-03-11T10:30:43;4.10;99.90
8180;DHT22;4131;48.810;11.892;2023-03-11T10:33:18;3.90;99.90
8180;DHT22;4131;48.810;11.892;2023-03-11T10:35:50;3.50;99.90
8180;DHT22;4131;48.810;11.892;2023-03-11T10:38:21;3.50;99.90
8180;DHT22;4131;48.810;11.892;2023-03-11T10:40:54;3.70;99.90
8180;DHT22;4131;48.810;11.892;2023-03-11T10:43:26;3.90;99.90
8180;DHT22;4131;48.810;11.892;2023-03-11T10:45:55;3.90;99.90
8180;DHT22;4131;48.810;11.892;2023-03-11T10:48:24;3.80;99.90
8180;DHT22;4131;48.810;11.892;2023-03-11T10:50:56;3.70;99.90
8180;DHT22;4131;48.810;11.892;2023-03-11T10:53:28;3.60;99.90
8180;DHT22;4131;48.810;11.892;2023-03-11T10:55:58;3.40;99.90
8180;DHT22;4131;48.810;11.892;2023-03-11T10:58:28;3.50;99.90
8180;DHT22;4131;48.810;11.892;2023-03-11T11:01:02;3.80;99.90
8180;DHT22;4131;48.810;11.892;2023-03-11T11:03:32;3.90;99.90
8180;DHT22;4131;48.810;11.892;2023-03-11T11:06:02;3.70;99.90
8180;DHT22;4131;48.810;11.892;2023-03-11T11:08:31;3.60;99.90
8180;DHT22;4131;48.810;11.892;2023-03-11T11:11:02;3.50;99.90
8180;DHT22;4131;48.810;11.892;2023-03-11T11:13:33;3.20;99.90
8180;DHT22;4131;48.810;11.892;2023-03-11T11:16:02;3.30;99.90
8180;DHT22;4131;48.810;11.892;2023-03-11T11:18:33;3.50;99.90
8180;DHT22;4131;48.810;11.892;2023-03-11T11:21:03;3.40;99.90
8180;DHT22;4131;48.810;11.892;2023-03-11T11:23:36;3.50;99.90
8180;DHT22;4131;48.810;11.892;2023-03-11T11:26:14;3.60;99.90
8180;DHT22;4131;48.810;11.892;2023-03-11T11:28:43;3.60;99.90
8180;DHT22;4131;48.810;11.892;2023-03-11T11:31:23;3.60;99.90
8180;DHT22;4131;48.810;11.892;2023-03-11T11:33:52;3.50;99.90
8180;DHT22;4131;48.810;11.892;2023-03-11T11:36:24;4.30;99.90
8180;DHT22;4131;48.810;11.892;2023-03-11T11:38:53;5.80;99.90
8180;DHT22;4131;48.810;11.892;2023-03-11T11:41:23;5.00;99.90
8180;DHT22;4131;48.810;11.892;2023-03-11T11:43:54;6.00;99.90
8180;DHT22;4131;48.810;11.892;2023-03-11T11:46:27;6.80;99.90
8180;DHT22;4131;48.810;11.892;2023-03-11T11:49:06;6.50;99.90
8180;DHT22;4131;48.810;11.892;2023-03-11T11:51:38;5.10;99.90
8180;DHT22;4131;48.810;11.892;2023-03-11T11:54:14;5.40;99.90
8180;DHT22;4131;48.810;11.892;2023-03-11T11:56:45;5.30;99.90
8180;DHT22;4131;48.810;11.892;2023-03-11T11:59:16;4.90;99.90
8180;DHT22;4131;48.810;11.892;2023-03-11T12:01:54;4.80;99.90
8180;DHT22;4131;48.810;11.892;2023-03-11T12:04:42;4.60;99.90
8180;DHT22;4131;48.810;11.892;2023-03-11T12:07:28;4.20;99.90
8180;DHT22;4131;48.810;11.892;2023-03-11T12:10:04;3.90;99.90
8180;DHT22;4131;48.810;11.892;2023-03-11T12:13:04;4.00;99.90
8180;DHT22;4131;48.810;11.892;2023-03-11T12:15:38;4.00;99.90
8180;DHT22;4131;48.810;11.892;2023-03-11T12:18:11;3.90;99.90
8180;DHT22;4131;48.810;11.892;2023-03-11T12:20:44;3.90;99.90
8180;DHT22;4131;48.810;11.892;2023-03-11T12:23:18;4.10;99.90
8180;DHT22;4131;48.810;11.892;2023-03-11T12:26:03;5.20;99.90
8180;DHT22;4131;48.810;11.892;2023-03-11T12:28:39;6.40;99.90
8180;DHT22;4131;48.810;11.892;2023-03-11T12:31:11;8.10;99.90
8180;DHT22;4131;48.810;11.892;2023-03-11T12:33:41;5.70;99.90
8180;DHT22;4131;48.810;11.892;2023-03-11T12:36:21;5.20;99.90
8180;DHT22;4131;48.810;11.892;2023-03-11T12:38:51;4.70;99.90
8180;DHT22;4131;48.810;11.892;2023-03-11T12:41:31;4.40;99.90
8180;DHT22;4131;48.810;11.892;2023-03-11T12:44:25;4.20;99.90
8180;DHT22;4131;48.810;11.892;2023-03-11T12:47:16;4.10;99.90
8180;DHT22;4131;48.810;11.892;2023-03-11T12:49:45;4.00;99.90
8180;DHT22;4131;48.810;11.892;2023-03-11T12:52:20;3.90;99.90
8180;DHT22;4131;48.810;11.892;2023-03-11T12:55:28;3.90;99.90
8180;DHT22;4131;48.810;11.892;2023-03-11T13:01:02;3.70;99.90
8180;DHT22;4131;48.810;11.892;2023-03-11T13:03:44;3.70;99.90
8180;DHT22;4131;48.810;11.892;2023-03-11T13:06:23;3.60;99.90
8180;DHT22;4131;48.810;11.892;2023-03-11T13:08:56;1.20;99.90
8180;DHT22;4131;48.810;11.892;2023-03-11T13:11:35;3.70;99.90
8180;DHT22;4131;48.810;11.892;2023-03-11T13:14:09;3.60;99.90
8180;DHT22;4131;48.810;11.892;2023-03-11T13:16:40;3.60;99.90
8180;DHT22;4131;48.810;11.892;2023-03-11T13:19:36;3.60;99.90
8180;DHT22;4131;48.810;11.892;2023-03-11T13:25:32;4.20;99.90
8180;DHT22;4131;48.810;11.892;2023-03-11T13:28:30;4.40;99.90
8180;DHT22;4131;48.810;11.892;2023-03-11T13:31:15;4.60;99.90
8180;DHT22;4131;48.810;11.892;2023-03-11T13:33:53;4.60;99.90
8180;DHT22;4131;48.810;11.892;2023-03-11T13:36:35;4.30;99.90
8180;DHT22;4131;48.810;11.892;2023-03-11T13:39:18;4.20;99.90
8180;DHT22;4131;48.810;11.892;2023-03-11T13:44:25;3.90;99.90
8180;DHT22;4131;48.810;11.892;2023-03-11T13:46:58;3.80;99.90
8180;DHT22;4131;48.810;11.892;2023-03-11T13:49:36;3.60;99.90
8180;DHT22;4131;48.810;11.892;2023-03-11T13:52:08;3.60;99.90
8180;DHT22;4131;48.810;11.892;2023-03-11T13:54:43;3.60;99.90
8180;DHT22;4131;48.810;11.892;2023-03-11T13:57:26;3.70;99.90
8180;DHT22;4131;48.810;11.892;2023-03-11T13:59:55;3.80;99.90
8180;DHT22;4131;48.810;11.892;2023-03-11T14:02:24;3.80;99.90
8180;DHT22;4131;48.810;11.892;2023-03-11T14:04:57;3.90;99.90
8180;DHT22;4131;48.810;11.892;2023-03-11T14:07:30;4.00;99.90
8180;DHT22;4131;48.810;11.892;2023-03-11T14:10:21;3.90;99.90
8180;DHT22;4131;48.810;11.892;2023-03-11T14:12:49;3.70;99.90
8180;DHT22;4131;48.810;11.892;2023-03-11T14:15:20;3.70;99.90
8180;DHT22;4131;48.810;11.892;2023-03-11T14:17:50;3.70;99.90
8180;DHT22;4131;48.810;11.892;2023-03-11T14:20:22;3.70;99.90
8180;DHT22;4131;48.810;11.892;2023-03-11T14:22:53;3.60;99.90
8180;DHT22;4131;48.810;11.892;2023-03-11T14:25:24;3.50;99.90
8180;DHT22;4131;48.810;11.892;2023-03-11T14:27:55;3.40;99.90
8180;DHT22;4131;48.810;11.892;2023-03-11T14:30:25;3.40;99.90
8180;DHT22;4131;48.810;11.892;2023-03-11T14:32:58;3.50;99.90
8180;DHT22;4131;48.810;11.892;2023-03-11T14:35:30;3.40;99.90
8180;DHT22;4131;48.810;11.892;2023-03-11T14:37:59;3.50;99.90
8180;DHT22;4131;48.810;11.892;2023-03-11T14:40:29;3.60;99.90
8180;DHT22;4131;48.810;11.892;2023-03-11T14:43:00;3.60;99.90
8180;DHT22;4131;48.810;11.892;2023-03-11T14:45:30;3.60;99.90
8180;DHT22;4131;48.810;11.892;2023-03-11T14:48:03;3.80;99.90
8180;DHT22;4131;48.810;11.892;2023-03-11T14:50:35;3.90;99.90
8180;DHT22;4131;48.810;11.892;2023-03-11T14:53:07;3.80;99.90
8180;DHT22;4131;48.810;11.892;2023-03-11T14:55:38;3.80;99.90
8180;DHT22;4131;48.810;11.892;2023-03-11T14:58:12;3.80;99.90
8180;DHT22;4131;48.810;11.892;2023-03-11T15:00:45;3.80;99.90
8180;DHT22;4131;48.810;11.892;2023-03-11T15:03:20;3.80;99.90
8180;DHT22;4131;48.810;11.892;2023-03-11T15:05:53;3.80;99.90
8180;DHT22;4131;48.810;11.892;2023-03-11T15:08:26;3.90;99.90
8180;DHT22;4131;48.810;11.892;2023-03-11T15:11:05;3.90;99.90
8180;DHT22;4131;48.810;11.892;2023-03-11T15:13:34;3.80;99.90
8180;DHT22;4131;48.810;11.892;2023-03-11T15:16:05;3.80;99.90
8180;DHT22;4131;48.810;11.892;2023-03-11T15:18:35;3.70;99.90
8180;DHT22;4131;48.810;11.892;2023-03-11T15:21:11;3.60;99.90
8180;DHT22;4131;48.810;11.892;2023-03-11T15:23:44;3.50;99.90
8180;DHT22;4131;48.810;11.892;2023-03-11T15:26:19;3.50;99.90
8180;DHT22;4131;48.810;11.892;2023-03-11T15:28:52;3.60;99.90
8180;DHT22;4131;48.810;11.892;2023-03-11T15:31:31;3.60;99.90
8180;DHT22;4131;48.810;11.892;2023-03-11T15:37:01;3.60;99.90
8180;DHT22;4131;48.810;11.892;2023-03-11T15:39:41;3.50;99.90
8180;DHT22;4131;48.810;11.892;2023-03-11T15:42:21;3.40;99.90
8180;DHT22;4131;48.810;11.892;2023-03-11T15:45:09;3.30;99.90
8180;DHT22;4131;48.810;11.892;2023-03-11T15:47:39;3.30;99.90
8180;DHT22;4131;48.810;11.892;2023-03-11T15:50:19;3.20;99.90
8180;DHT22;4131;48.810;11.892;2023-03-11T15:52:54;3.20;99.90
8180;DHT22;4131;48.810;11.892;2023-03-11T15:55:24;3.20;99.90
8180;DHT22;4131;48.810;11.892;2023-03-11T15:57:57;3.20;99.90
8180;DHT22;4131;48.810;11.892;2023-03-11T16:00:27;3.20;99.90
8180;DHT22;4131;48.810;11.892;2023-03-11T16:02:55;3.20;99.90
8180;DHT22;4131;48.810;11.892;2023-03-11T16:05:24;3.20;99.90
8180;DHT22;4131;48.810;11.892;2023-03-11T16:07:53;3.10;99.90
8180;DHT22;4131;48.810;11.892;2023-03-11T16:10:23;3.10;99.90
8180;DHT22;4131;48.810;11.892;2023-03-11T16:12:54;3.00;99.90
8180;DHT22;4131;48.810;11.892;2023-03-11T16:15:25;2.90;99.90
8180;DHT22;4131;48.810;11.892;2023-03-11T16:17:57;2.90;99.90
8180;DHT22;4131;48.810;11.892;2023-03-11T16:20:28;2.80;99.90
8180;DHT22;4131;48.810;11.892;2023-03-11T16:22:59;2.80;99.90
8180;DHT22;4131;48.810;11.892;2023-03-11T16:25:30;1.90;99.90
8180;DHT22;4131;48.810;11.892;2023-03-11T16:27:59;2.60;99.90
8180;DHT22;4131;48.810;11.892;2023-03-11T16:30:31;2.60;99.90
8180;DHT22;4131;48.810;11.892;2023-03-11T16:33:00;2.60;99.90
8180;DHT22;4131;48.810;11.892;2023-03-11T16:35:31;2.60;99.90
8180;DHT22;4131;48.810;11.892;2023-03-11T16:38:01;2.60;99.90
8180;DHT22;4131;48.810;11.892;2023-03-11T16:40:30;2.60;99.90
8180;DHT22;4131;48.810;11.892;2023-03-11T16:43:00;2.50;99.90
8180;DHT22;4131;48.810;11.892;2023-03-11T16:45:28;2.50;99.90
8180;DHT22;4131;48.810;11.892;2023-03-11T16:47:57;2.40;99.90
8180;DHT22;4131;48.810;11.892;2023-03-11T16:50:25;2.40;99.90
8180;DHT22;4131;48.810;11.892;2023-03-11T16:52:54;2.40;99.90
8180;DHT22;4131;48.810;11.892;2023-03-11T16:55:24;2.40;99.90
8180;DHT22;4131;48.810;11.892;2023-03-11T16:57:53;2.20;99.90
8180;DHT22;4131;48.810;11.892;2023-03-11T17:00:23;2.20;99.90
8180;DHT22;4131;48.810;11.892;2023-03-11T17:02:52;2.20;99.90
8180;DHT22;4131;48.810;11.892;2023-03-11T17:05:20;2.20;99.90
8180;DHT22;4131;48.810;11.892;2023-03-11T17:07:52;2.20;99.90
8180;DHT22;4131;48.810;11.892;2023-03-11T17:12:51;2.10;99.90
8180;DHT22;4131;48.810;11.892;2023-03-11T17:15:20;2.10;99.90
8180;DHT22;4131;48.810;11.892;2023-03-11T17:17:48;2.10;99.90
8180;DHT22;4131;48.810;11.892;2023-03-11T17:20:17;2.00;99.90
8180;DHT22;4131;48.810;11.892;2023-03-11T17:25:15;2.00;99.90
8180;DHT22;4131;48.810;11.892;2023-03-11T17:30:14;2.00;99.90
8180;DHT22;4131;48.810;11.892;2023-03-11T17:35:28;1.90;99.90
8180;DHT22;4131;48.810;11.892;2023-03-11T17:37:56;1.90;99.90
8180;DHT22;4131;48.810;11.892;2023-03-11T17:42:55;1.80;99.90
8180;DHT22;4131;48.810;11.892;2023-03-11T17:45:24;1.60;99.90
8180;DHT22;4131;48.810;11.892;2023-03-11T17:47:52;1.60;99.90
8180;DHT22;4131;48.810;11.892;2023-03-11T17:50:20;1.60;99.90
8180;DHT22;4131;48.810;11.892;2023-03-11T17:52:48;1.60;99.90
8180;DHT22;4131;48.810;11.892;2023-03-11T17:55:16;1.50;99.90
8180;DHT22;4131;48.810;11.892;2023-03-11T17:57:44;1.50;99.90
8180;DHT22;4131;48.810;11.892;2023-03-11T18:00:13;1.50;99.90
8180;DHT22;4131;48.810;11.892;2023-03-11T18:02:42;1.40;99.90
8180;DHT22;4131;48.810;11.892;2023-03-11T18:05:10;1.30;99.90
8180;DHT22;4131;48.810;11.892;2023-03-11T18:07:38;1.30;99.90
8180;DHT22;4131;48.810;11.892;2023-03-11T18:10:08;1.30;99.90
8180;DHT22;4131;48.810;11.892;2023-03-11T18:15:06;1.20;99.90
8180;DHT22;4131;48.810;11.892;2023-03-11T18:17:41;1.10;99.90
8180;DHT22;4131;48.810;11.892;2023-03-11T18:20:10;1.10;99.90
8180;DHT22;4131;48.810;11.892;2023-03-11T18:22:39;1.00;99.90
8180;DHT22;4131;48.810;11.892;2023-03-11T18:25:12;1.00;99.90
8180;DHT22;4131;48.810;11.892;2023-03-11T18:27:40;0.90;99.90
8180;DHT22;4131;48.810;11.892;2023-03-11T18:30:10;0.80;99.90
8180;DHT22;4131;48.810;11.892;2023-03-11T18:32:39;0.80;99.90
8180;DHT22;4131;48.810;11.892;2023-03-11T18:35:09;0.70;99.90
8180;DHT22;4131;48.810;11.892;2023-03-11T18:40:09;0.60;99.90
8180;DHT22;4131;48.810;11.892;2023-03-11T18:45:07;0.70;99.90
8180;DHT22;4131;48.810;11.892;2023-03-11T18:50:08;0.60;99.90
8180;DHT22;4131;48.810;11.892;2023-03-11T18:55:05;0.60;99.90
8180;DHT22;4131;48.810;11.892;2023-03-11T18:57:34;0.60;99.90
8180;DHT22;4131;48.810;11.892;2023-03-11T19:00:06;0.50;99.90
8180;DHT22;4131;48.810;11.892;2023-03-11T19:02:36;0.50;99.90
8180;DHT22;4131;48.810;11.892;2023-03-11T19:05:09;0.50;99.90
8180;DHT22;4131;48.810;11.892;2023-03-11T19:07:37;0.50;99.90
8180;DHT22;4131;48.810;11.892;2023-03-11T19:12:34;0.40;99.90
8180;DHT22;4131;48.810;11.892;2023-03-11T19:15:04;0.40;99.90
8180;DHT22;4131;48.810;11.892;2023-03-11T19:17:34;0.40;99.90
8180;DHT22;4131;48.810;11.892;2023-03-11T19:20:03;0.40;99.90
8180;DHT22;4131;48.810;11.892;2023-03-11T19:22:36;0.30;99.90
8180;DHT22;4131;48.810;11.892;2023-03-11T19:25:05;0.30;99.90
8180;DHT22;4131;48.810;11.892;2023-03-11T19:30:06;0.30;99.90
8180;DHT22;4131;48.810;11.892;2023-03-11T19:40:03;0.10;99.90
8180;DHT22;4131;48.810;11.892;2023-03-11T19:47:28;0.00;99.90
8180;DHT22;4131;48.810;11.892;2023-03-11T19:57:24;-0.20;99.90
8180;DHT22;4131;48.810;11.892;2023-03-11T19:59:54;-0.30;99.90
8180;DHT22;4131;48.810;11.892;2023-03-11T20:07:20;-0.40;99.90
8180;DHT22;4131;48.810;11.892;2023-03-11T20:14:46;-0.70;99.90
8180;DHT22;4131;48.810;11.892;2023-03-11T20:19:43;-0.90;99.90
8180;DHT22;4131;48.810;11.892;2023-03-11T20:32:07;-1.40;99.90
8180;DHT22;4131;48.810;11.892;2023-03-11T20:49:30;-1.80;99.90
8180;DHT22;4131;48.810;11.892;2023-03-11T21:01:54;-1.90;99.90
8180;DHT22;4131;48.810;11.892;2023-03-11T21:06:52;-2.10;99.90
8180;DHT22;4131;48.810;11.892;2023-03-11T21:24:13;-2.30;99.90
8180;DHT22;4131;48.810;11.892;2023-03-11T21:34:09;-2.10;99.90
8180;DHT22;4131;48.810;11.892;2023-03-11T21:41:36;-2.10;99.90
8180;DHT22;4131;48.810;11.892;2023-03-11T21:46:32;-2.10;99.90
8180;DHT22;4131;48.810;11.892;2023-03-11T21:53:57;-2.30;99.90
8180;DHT22;4131;48.810;11.892;2023-03-11T21:58:56;-2.30;99.90
8180;DHT22;4131;48.810;11.892;2023-03-11T22:03:53;-2.30;99.90
8180;DHT22;4131;48.810;11.892;2023-03-11T22:08:51;-2.40;99.90
8180;DHT22;4131;48.810;11.892;2023-03-11T22:11:19;-2.30;99.90
8180;DHT22;4131;48.810;11.892;2023-03-11T22:13:49;-2.40;99.90
8180;DHT22;4131;48.810;11.892;2023-03-11T22:16:20;-2.40;99.90
8180;DHT22;4131;48.810;11.892;2023-03-11T22:21:18;-2.50;99.90
8180;DHT22;4131;48.810;11.892;2023-03-11T22:31:14;-2.50;99.90
8180;DHT22;4131;48.810;11.892;2023-03-11T22:33:45;-2.70;99.90
8180;DHT22;4131;48.810;11.892;2023-03-11T22:51:06;-2.90;99.90
8180;DHT22;4131;48.810;11.892;2023-03-11T22:56:06;-2.90;99.90
8180;DHT22;4131;48.810;11.892;2023-03-11T23:01:03;-2.90;99.90
8180;DHT22;4131;48.810;11.892;2023-03-11T23:06:02;-2.90;99.90
8180;DHT22;4131;48.810;11.892;2023-03-11T23:08:32;-2.90;99.90
8180;DHT22;4131;48.810;11.892;2023-03-11T23:11:01;-2.90;99.90
8180;DHT22;4131;48.810;11.892;2023-03-11T23:16:03;-2.90;99.90
8180;DHT22;4131;48.810;11.892;2023-03-11T23:18:31;-2.90;99.90
8180;DHT22;4131;48.810;11.892;2023-03-11T23:25:57;-2.80;99.90
8180;DHT22;4131;48.810;11.892;2023-03-11T23:43:18;-2.80;99.90
8180;DHT22;4131;48.810;11.892;2023-03-11T23:50:44;-2.80;99.90
8180;DHT22;4131;48.810;11.892;2023-03-11T23:53:13;-2.80;99.90
